Clio, West Virginia
Current Conditions -  °F | °C
As of 10:54 AM on Monday 24 Nov 2014 (Local Time) from KCRW Reporting Station
Scattered Clouds Scattered Clouds  
Wind Chill: 70°   Ceiling: Unl
Heat Index: 70°   Visibility: 10mi
Dew Point: 43°   Wind: 18mph
Humidity: 38%   Direction: 220°SW
Pressure: 29.54"   Gusts: 31mph
Location:  38.58°N, 81.3°W
Report Text: KCRW 241554Z 22016G27KT 10SM SCT065 21/06 A2954 RMK AO2 PK WND 20039/1529 SLP995 T02110061 $
Loading
Personal Weather Stations






























Interactive Weather Map New forecast layout! Learn more

10-Day Weather Forecast

Advertisements
Track Severe Weather on mobile